Terminal Aerodrome Forecast
Issued by NWS

Home | Current Version | Previous Version | Text Only | Print | Product List | Glossary On
Versions: 1 2 3 4 5 6 7 8 9 10 11 12 13 14 15 16 17 18 19
000
FTUS43 KDMX 262340
TAFOTM
TAF
KOTM 262340Z 2700/2724 07007KT P6SM -SHRA OVC025
     FM270600 11005KT 4SM -SHRA BR OVC020
     FM271100 20009KT 3SM BR BKN030
     FM271600 23006KT P6SM SCT030 BKN100=

USA.gov is the U.S. government's official web portal to all federal, state and local government web resources and services.